Time;durP1;ratioP1;P1;durP2;ratioP2;P2;SDS_P1;SDS_P2;PMS_P1;PMS_P2;Temp;Humidity;BMP_temperature;BMP_pressure;BME280_temperature;BME280_humidity;BME280_pressure;Samples;Min_cycle;Max_cycle;Signal;HPM_P1;HPM_P2
2021/06/29 00:00:33;;;;;;;61.78;33.58;;;19.70;99.90;;;;;;5031782;28;20026;-75
2021/06/29 00:03:01;;;;;;;52.63;30.50;;;19.60;99.90;;;;;;5032634;28;20116;-76
2021/06/29 00:05:29;;;;;;;51.05;29.20;;;19.60;99.90;;;;;;5033614;28;20027;-75
2021/06/29 00:07:55;;;;;;;55.90;31.95;;;19.60;99.90;;;;;;5032633;28;20446;-75
2021/06/29 00:10:23;;;;;;;58.13;30.73;;;19.70;99.90;;;;;;5020857;28;20061;-75
2021/06/29 00:12:49;;;;;;;56.40;32.00;;;19.60;99.90;;;;;;5033843;28;20088;-76
2021/06/29 00:15:15;;;;;;;52.60;29.95;;;19.60;99.90;;;;;;5032346;28;20033;-74
2021/06/29 00:17:40;;;;;;;49.30;30.08;;;19.60;99.90;;;;;;5034222;28;20026;-75
2021/06/29 00:20:07;;;;;;;48.50;27.27;;;19.50;99.90;;;;;;5031926;28;20042;-75
2021/06/29 00:22:32;;;;;;;51.92;30.55;;;19.60;99.90;;;;;;5032605;28;20029;-75
2021/06/29 00:24:58;;;;;;;53.90;27.30;;;19.60;99.90;;;;;;5028432;28;20028;-75
2021/06/29 00:27:24;;;;;;;45.40;26.95;;;19.60;99.90;;;;;;5028259;28;20068;-75
2021/06/29 00:29:49;;;;;;;40.30;26.08;;;19.60;99.90;;;;;;5033113;28;20026;-76
2021/06/29 00:32:15;;;;;;;43.80;25.85;;;19.60;99.90;;;;;;5032079;28;20029;-75
2021/06/29 00:34:40;;;;;;;50.75;28.02;;;19.60;99.90;;;;;;5042076;28;20045;-75
2021/06/29 00:37:06;;;;;;;43.53;25.15;;;19.60;99.90;;;;;;5039579;28;20367;-75
2021/06/29 00:39:32;;;;;;;51.80;26.73;;;19.60;99.90;;;;;;5031834;28;20041;-75
2021/06/29 00:41:57;;;;;;;51.35;28.40;;;19.60;99.90;;;;;;5034190;28;20070;-74
2021/06/29 00:44:23;;;;;;;38.10;23.30;;;19.50;99.90;;;;;;5052004;28;20108;-75
2021/06/29 00:46:51;;;;;;;38.95;22.65;;;19.50;99.90;;;;;;5038059;28;20033;-75
2021/06/29 00:49:16;;;;;;;;;;;19.50;99.90;;;;;;5032910;28;20036;-74
2021/06/29 00:51:43;;;;;;;34.08;21.70;;;19.50;99.90;;;;;;5032123;28;19909;-75
2021/06/29 00:54:09;;;;;;;38.40;21.98;;;19.60;99.90;;;;;;5032773;28;20478;-75
2021/06/29 00:56:37;;;;;;;34.38;21.25;;;19.60;99.90;;;;;;5032708;28;20025;-76
2021/06/29 00:59:02;;;;;;;;;;;19.60;99.90;;;;;;5031220;28;20037;-75
2021/06/29 01:01:28;;;;;;;35.95;20.73;;;19.70;99.90;;;;;;5033290;28;20328;-75
2021/06/29 01:03:53;;;;;;;37.28;21.95;;;19.60;99.90;;;;;;5031086;28;20371;-75
2021/06/29 01:06:19;;;;;;;40.88;23.25;;;19.60;99.90;;;;;;5032788;28;20035;-75
2021/06/29 01:08:45;;;;;;;35.53;22.02;;;19.60;99.90;;;;;;5032001;28;20042;-75
2021/06/29 01:11:12;;;;;;;28.80;19.73;;;19.60;99.90;;;;;;5032675;28;20108;-75
2021/06/29 01:13:41;;;;;;;34.40;23.73;;;19.60;99.90;;;;;;5032512;28;20052;-75
2021/06/29 01:16:07;;;;;;;41.75;24.92;;;19.50;99.90;;;;;;5035481;28;20079;-74
2021/06/29 01:18:34;;;;;;;45.28;24.60;;;19.50;99.90;;;;;;5035470;28;20064;-75
2021/06/29 01:21:00;;;;;;;37.63;24.27;;;19.50;99.90;;;;;;5035721;28;20021;-75
2021/06/29 01:23:28;;;;;;;37.17;23.10;;;19.40;99.90;;;;;;5036714;28;20636;-74
2021/06/29 01:26:14;;;;;;;43.90;25.45;;;19.40;99.90;;;;;;5035441;28;20029;-74
2021/06/29 01:31:26;;;;;;;42.53;23.63;;;19.50;99.90;;;;;;5036647;28;20576;-75
2021/06/29 01:33:52;;;;;;;34.13;20.67;;;19.50;99.90;;;;;;5036045;28;20049;-75
2021/06/29 01:36:20;;;;;;;36.38;22.98;;;19.50;99.90;;;;;;5017023;28;20463;-75
2021/06/29 01:38:46;;;;;;;34.45;21.90;;;19.50;99.90;;;;;;5024633;28;20037;-75
2021/06/29 01:41:14;;;;;;;35.28;22.50;;;19.50;99.90;;;;;;5033348;28;20108;-75
2021/06/29 01:43:55;;;;;;;33.75;21.55;;;19.50;99.90;;;;;;5034935;28;20506;-75
2021/06/29 01:46:23;;;;;;;31.20;20.17;;;19.50;99.90;;;;;;5035024;28;20029;-75
2021/06/29 01:48:51;;;;;;;29.40;20.15;;;19.50;99.90;;;;;;5047590;28;20500;-74
2021/06/29 01:51:17;;;;;;;30.85;19.83;;;19.60;99.90;;;;;;5040412;28;20057;-75
2021/06/29 01:53:45;;;;;;;35.53;22.67;;;19.60;99.90;;;;;;5034509;28;20114;-75
2021/06/29 01:56:14;;;;;;;40.58;24.20;;;19.50;99.90;;;;;;5034165;28;20021;-74
2021/06/29 01:59:06;;;;;;;44.35;23.92;;;19.50;99.90;;;;;;5029971;28;20105;-75
2021/06/29 02:01:32;;;;;;;40.05;23.90;;;19.40;99.90;;;;;;5034685;28;20382;-74
2021/06/29 02:03:58;;;;;;;47.00;24.15;;;19.40;99.90;;;;;;5035622;28;20037;-75
2021/06/29 02:06:23;;;;;;;49.45;24.45;;;19.40;99.90;;;;;;5035911;28;20375;-76
2021/06/29 02:08:49;;;;;;;45.05;24.15;;;19.30;99.90;;;;;;5040194;28;20018;-75
2021/06/29 02:11:15;;;;;;;46.08;25.00;;;19.20;99.90;;;;;;5034429;28;20037;-75
2021/06/29 02:13:41;;;;;;;39.33;22.92;;;19.20;99.90;;;;;;5037286;28;20496;-75
2021/06/29 02:16:06;;;;;;;45.50;23.27;;;19.20;99.90;;;;;;5030840;28;20056;-75
2021/06/29 02:18:32;;;;;;;45.58;24.58;;;19.20;99.90;;;;;;5034673;28;20038;-74
2021/06/29 02:20:58;;;;;;;45.53;23.38;;;19.20;99.90;;;;;;5034190;28;20037;-75
2021/06/29 02:23:24;;;;;;;46.78;23.42;;;19.10;99.90;;;;;;5035166;28;20470;-75
2021/06/29 02:25:51;;;;;;;43.20;23.83;;;19.10;99.90;;;;;;5035986;28;20053;-75
2021/06/29 02:28:17;;;;;;;42.72;23.98;;;19.10;99.90;;;;;;5041017;28;20420;-75
2021/06/29 02:30:42;;;;;;;55.65;27.13;;;19.10;99.90;;;;;;5042074;28;20034;-75
2021/06/29 02:33:09;;;;;;;48.45;26.25;;;19.00;99.90;;;;;;5036325;28;20045;-75
2021/06/29 02:35:35;;;;;;;50.72;25.60;;;18.90;99.90;;;;;;5035825;28;20033;-75
2021/06/29 02:38:01;;;;;;;53.17;25.52;;;18.80;99.90;;;;;;5034398;28;20466;-74
2021/06/29 02:40:26;;;;;;;57.53;27.88;;;18.80;99.90;;;;;;5033603;28;20041;-75
2021/06/29 02:42:52;;;;;;;66.30;30.70;;;18.80;99.90;;;;;;5033120;28;20030;-75
2021/06/29 02:45:20;;;;;;;49.40;25.50;;;18.80;99.90;;;;;;5035322;28;20079;-75
2021/06/29 02:47:46;;;;;;;54.25;27.55;;;18.80;99.90;;;;;;5033783;28;20028;-75
2021/06/29 02:50:13;;;;;;;47.47;26.85;;;18.80;99.90;;;;;;5034284;28;20160;-76
2021/06/29 02:52:39;;;;;;;48.75;26.33;;;18.80;99.90;;;;;;5033104;28;20029;-75
2021/06/29 02:55:07;;;;;;;56.50;25.55;;;18.80;99.90;;;;;;5034219;28;20023;-76
2021/06/29 02:57:33;;;;;;;55.63;25.55;;;18.80;99.90;;;;;;5034813;28;20022;-76
2021/06/29 02:59:59;;;;;;;52.08;26.10;;;18.80;99.90;;;;;;5029796;28;20152;-75
2021/06/29 03:02:24;;;;;;;49.90;26.70;;;18.80;99.90;;;;;;5032967;28;20029;-75
2021/06/29 03:04:50;;;;;;;47.40;25.75;;;18.80;99.90;;;;;;5035803;28;20462;-75
2021/06/29 03:07:16;;;;;;;47.88;25.23;;;18.80;99.90;;;;;;5035803;28;20037;-75
2021/06/29 03:09:42;;;;;;;38.55;23.20;;;18.90;99.90;;;;;;5051881;28;20403;-75
2021/06/29 03:12:08;;;;;;;36.80;22.17;;;19.00;99.90;;;;;;5033376;28;20040;-75
2021/06/29 03:14:38;;;;;;;38.42;20.13;;;19.00;99.90;;;;;;5039575;28;20043;-75
2021/06/29 03:17:05;;;;;;;50.80;22.33;;;19.10;99.90;;;;;;5036832;28;20030;-75
2021/06/29 03:19:32;;;;;;;43.45;21.85;;;19.00;99.90;;;;;;5052178;28;20036;-75
2021/06/29 03:21:58;;;;;;;38.67;20.70;;;18.90;99.90;;;;;;5018429;28;20470;-75
2021/06/29 03:24:24;;;;;;;38.15;20.75;;;18.80;99.90;;;;;;5032908;28;20075;-75
2021/06/29 03:26:49;;;;;;;38.35;18.73;;;18.80;99.90;;;;;;5032543;28;20029;-74
2021/06/29 03:29:15;;;;;;;35.08;18.52;;;18.80;99.90;;;;;;5035396;28;20049;-75
2021/06/29 03:31:41;;;;;;;23.63;16.02;;;18.80;99.90;;;;;;5035125;28;20022;-75
2021/06/29 03:34:06;;;;;;;25.13;16.20;;;18.80;99.90;;;;;;5043634;28;20081;-75
2021/06/29 03:36:32;;;;;;;38.13;18.70;;;18.90;99.90;;;;;;5034999;28;20017;-75
2021/06/29 03:38:58;;;;;;;24.60;15.57;;;18.90;99.90;;;;;;5039529;28;20032;-75
2021/06/29 03:41:24;;;;;;;41.80;17.45;;;19.00;99.90;;;;;;5051511;28;20026;-76
2021/06/29 03:43:50;;;;;;;30.05;15.68;;;18.90;99.90;;;;;;5032467;28;20535;-76
2021/06/29 03:46:15;;;;;;;30.67;15.65;;;18.90;99.90;;;;;;5032511;28;20026;-75
2021/06/29 03:48:41;;;;;;;33.95;17.17;;;19.00;99.90;;;;;;5044178;28;20036;-75
2021/06/29 03:51:06;;;;;;;29.50;16.67;;;19.00;99.90;;;;;;5041599;28;21262;-74
2021/06/29 03:53:32;;;;;;;31.42;16.40;;;19.00;99.90;;;;;;5031463;28;20040;-74
2021/06/29 03:55:58;;;;;;;33.97;16.42;;;18.90;99.90;;;;;;5033505;28;20037;-74
2021/06/29 03:58:23;;;;;;;24.00;15.57;;;18.90;99.90;;;;;;5040809;28;20032;-75
2021/06/29 04:00:49;;;;;;;32.08;15.90;;;19.00;99.90;;;;;;5033620;28;20025;-75
2021/06/29 04:03:15;;;;;;;32.40;15.43;;;19.00;99.90;;;;;;5030845;28;20037;-75
2021/06/29 04:05:40;;;;;;;27.73;16.70;;;19.00;99.90;;;;;;5029733;28;20140;-75
2021/06/29 04:08:06;;;;;;;22.08;14.88;;;19.00;99.90;;;;;;5036499;28;20496;-75
2021/06/29 04:10:32;;;;;;;26.63;14.23;;;19.00;99.90;;;;;;5031828;28;20067;-75
2021/06/29 04:12:58;;;;;;;27.58;15.52;;;19.10;99.90;;;;;;5037032;28;20025;-75
2021/06/29 04:15:24;;;;;;;26.20;15.75;;;19.10;99.90;;;;;;5032495;28;20021;-75
2021/06/29 04:17:50;;;;;;;22.05;15.35;;;19.20;99.90;;;;;;5035580;28;20113;-76
2021/06/29 04:20:16;;;;;;;25.10;15.88;;;19.20;99.90;;;;;;5031292;28;20033;-75
2021/06/29 04:22:41;;;;;;;27.20;15.43;;;19.10;99.90;;;;;;5024665;28;20386;-75
2021/06/29 04:25:08;;;;;;;28.52;15.23;;;19.00;99.90;;;;;;5031410;28;20402;-75
2021/06/29 04:27:34;;;;;;;20.63;14.82;;;19.00;99.90;;;;;;5034293;28;20017;-75
2021/06/29 04:30:00;;;;;;;20.92;14.00;;;19.00;99.90;;;;;;5032872;28;20398;-75
2021/06/29 04:32:26;;;;;;;25.77;14.43;;;19.10;99.90;;;;;;5033382;28;20559;-75
2021/06/29 04:34:51;;;;;;;20.30;12.05;;;19.10;99.90;;;;;;5032665;28;20045;-75
2021/06/29 04:37:17;;;;;;;26.10;15.70;;;19.20;99.90;;;;;;5039711;28;20025;-76
2021/06/29 04:39:44;;;;;;;31.40;17.05;;;19.20;99.90;;;;;;5032450;28;20494;-75
2021/06/29 04:42:10;;;;;;;32.30;14.27;;;19.10;99.90;;;;;;5031952;28;20151;-75
2021/06/29 04:44:39;;;;;;;23.92;15.35;;;19.00;99.90;;;;;;5032906;28;20025;-75
2021/06/29 04:47:08;;;;;;;21.08;14.50;;;19.00;99.90;;;;;;5032183;28;20026;-75
2021/06/29 04:49:35;;;;;;;30.33;14.35;;;18.90;99.90;;;;;;5038726;28;20478;-75
2021/06/29 04:52:01;;;;;;;22.23;14.00;;;19.00;99.90;;;;;;5031915;28;20013;-75
2021/06/29 04:54:27;;;;;;;25.88;14.00;;;19.10;99.90;;;;;;5031604;28;20033;-76
2021/06/29 04:56:52;;;;;;;21.50;14.45;;;19.10;99.90;;;;;;5047004;28;20045;-75
2021/06/29 04:59:18;;;;;;;26.38;14.23;;;19.10;99.90;;;;;;5030815;28;20108;-75
2021/06/29 05:01:43;;;;;;;27.73;14.35;;;19.10;99.90;;;;;;5033689;28;20053;-75
2021/06/29 05:04:09;;;;;;;21.00;13.55;;;19.20;99.90;;;;;;5032491;28;20033;-76
2021/06/29 05:06:35;;;;;;;23.40;13.43;;;19.20;99.90;;;;;;5033276;28;20021;-75
2021/06/29 05:09:00;;;;;;;20.83;13.70;;;19.20;99.90;;;;;;5032821;28;20030;-74
2021/06/29 05:11:26;;;;;;;17.25;12.63;;;19.30;99.90;;;;;;5031981;28;20022;-75
2021/06/29 05:13:53;;;;;;;17.50;12.15;;;19.30;99.90;;;;;;5032838;28;20033;-75
2021/06/29 05:16:18;;;;;;;18.20;13.10;;;19.30;99.90;;;;;;5032607;28;20037;-75
2021/06/29 05:18:44;;;;;;;17.10;11.98;;;19.30;99.90;;;;;;5033267;28;20018;-75
2021/06/29 05:21:10;;;;;;;22.77;12.77;;;19.30;99.90;;;;;;5032495;28;20381;-75
2021/06/29 05:23:35;;;;;;;28.90;14.23;;;19.30;99.90;;;;;;5032426;28;20025;-75
2021/06/29 05:26:01;;;;;;;20.13;14.48;;;19.30;99.90;;;;;;5033695;28;20033;-75
2021/06/29 05:28:27;;;;;;;18.42;13.65;;;19.30;99.90;;;;;;5043877;28;20041;-75
2021/06/29 05:30:55;;;;;;;20.40;13.10;;;19.30;99.90;;;;;;5038485;28;20032;-74
2021/06/29 05:33:21;;;;;;;19.88;12.73;;;19.40;99.90;;;;;;5039375;28;20044;-74
2021/06/29 05:35:47;;;;;;;19.92;13.27;;;19.40;99.90;;;;;;5015456;28;20429;-74
2021/06/29 05:38:13;;;;;;;17.60;12.10;;;19.40;99.90;;;;;;5022513;28;20103;-74
2021/06/29 05:40:39;;;;;;;22.45;13.18;;;19.40;99.90;;;;;;5031311;28;20065;-75
2021/06/29 05:43:05;;;;;;;21.27;13.65;;;19.40;99.90;;;;;;5032536;28;20068;-75
2021/06/29 05:45:30;;;;;;;22.08;13.25;;;19.40;99.90;;;;;;5032385;28;20034;-75
2021/06/29 05:47:57;;;;;;;21.98;13.40;;;19.40;99.90;;;;;;5030699;28;20025;-75
2021/06/29 05:50:24;;;;;;;25.25;15.70;;;19.50;99.90;;;;;;5027416;28;20101;-74
2021/06/29 05:52:49;;;;;;;29.75;16.55;;;19.40;99.90;;;;;;5017793;28;20021;-75
2021/06/29 05:55:16;;;;;;;26.52;15.98;;;19.40;99.90;;;;;;5031720;28;20049;-74
2021/06/29 05:57:42;;;;;;;23.42;15.90;;;19.40;99.90;;;;;;5030911;28;20017;-74
2021/06/29 06:00:14;;;;;;;30.50;17.83;;;19.40;99.90;;;;;;5032472;28;20075;-74
2021/06/29 06:02:40;;;;;;;26.70;14.90;;;19.40;99.90;;;;;;5034157;28;20126;-74
2021/06/29 06:05:07;;;;;;;31.70;16.92;;;19.50;99.90;;;;;;5036160;28;20513;-75
2021/06/29 06:07:33;;;;;;;26.25;15.73;;;19.40;99.90;;;;;;5033680;28;20052;-74
2021/06/29 06:09:59;;;;;;;28.90;17.17;;;19.40;99.90;;;;;;5036358;28;20021;-74
2021/06/29 06:12:25;;;;;;;27.52;17.08;;;19.30;99.90;;;;;;5034707;28;20029;-74
2021/06/29 06:14:51;;;;;;;36.15;18.63;;;19.20;99.90;;;;;;5049649;28;20032;-74
2021/06/29 06:17:16;;;;;;;29.58;17.65;;;19.20;99.90;;;;;;5037231;28;20029;-74
2021/06/29 06:19:42;;;;;;;32.67;17.83;;;19.10;99.90;;;;;;5039355;28;20025;-73
2021/06/29 06:22:08;;;;;;;30.95;18.77;;;19.10;99.90;;;;;;5036431;28;20200;-74
2021/06/29 06:24:33;;;;;;;30.42;18.08;;;19.10;99.90;;;;;;5033412;28;20398;-74
2021/06/29 06:26:59;;;;;;;28.67;17.67;;;19.10;99.90;;;;;;5035279;28;20132;-74
2021/06/29 06:29:24;;;;;;;32.05;18.17;;;19.10;99.90;;;;;;5035437;28;20028;-74
2021/06/29 06:31:50;;;;;;;33.70;18.77;;;19.10;99.90;;;;;;5035599;28;20437;-72
2021/06/29 06:34:16;;;;;;;31.10;19.00;;;19.20;99.90;;;;;;5046005;28;20432;-73
2021/06/29 06:36:41;;;;;;;36.15;19.75;;;19.20;99.90;;;;;;5037311;28;20030;-74
2021/06/29 06:39:07;;;;;;;33.75;19.23;;;19.20;99.90;;;;;;5034036;28;20381;-73
2021/06/29 06:41:33;;;;;;;29.77;18.83;;;19.20;99.90;;;;;;5032494;28;20032;-73
2021/06/29 06:43:58;;;;;;;33.83;19.02;;;19.30;99.90;;;;;;5031085;28;20442;-73
2021/06/29 06:46:24;;;;;;;31.50;18.80;;;19.40;99.90;;;;;;5035302;28;20030;-73
2021/06/29 06:48:50;;;;;;;40.20;18.98;;;19.40;99.90;;;;;;5033810;28;20477;-73
2021/06/29 06:51:17;;;;;;;31.05;18.60;;;19.40;99.90;;;;;;5039759;28;20036;-73
2021/06/29 06:53:42;;;;;;;33.78;18.92;;;19.40;99.90;;;;;;5039182;28;20052;-74
2021/06/29 06:56:17;;;;;;;30.23;18.27;;;19.40;99.90;;;;;;5031496;28;20025;-75
2021/06/29 06:58:44;;;;;;;38.42;18.30;;;19.40;99.90;;;;;;5035291;28;20760;-74
2021/06/29 07:01:10;;;;;;;49.30;19.43;;;19.30;99.90;;;;;;5033048;28;20021;-73
2021/06/29 07:03:37;;;;;;;30.13;17.85;;;19.20;99.90;;;;;;5034485;28;20044;-74
2021/06/29 07:06:04;;;;;;;28.10;17.80;;;19.00;99.90;;;;;;5033590;28;20033;-74
2021/06/29 07:08:30;;;;;;;28.20;17.52;;;19.00;99.90;;;;;;5034616;28;20083;-73
2021/06/29 07:10:57;;;;;;;32.80;16.75;;;19.10;99.90;;;;;;5033071;28;20037;-73
2021/06/29 07:13:23;;;;;;;26.53;17.03;;;19.10;99.90;;;;;;5026169;28;20034;-74
2021/06/29 07:15:49;;;;;;;34.88;17.10;;;19.10;99.90;;;;;;5048846;28;20037;-75
2021/06/29 07:18:15;;;;;;;36.08;18.83;;;19.10;99.90;;;;;;5028031;28;20026;-73
2021/06/29 07:20:46;;;;;;;29.98;18.70;;;19.20;99.90;;;;;;5036651;28;20038;-73
2021/06/29 07:23:12;;;;;;;28.02;17.33;;;19.10;99.90;;;;;;5046797;28;20028;-74
2021/06/29 07:25:39;;;;;;;35.60;17.88;;;19.10;99.90;;;;;;5036262;28;20470;-73
2021/06/29 07:28:05;;;;;;;33.10;19.38;;;19.10;99.90;;;;;;5034603;28;20029;-74
2021/06/29 07:30:30;;;;;;;32.28;18.15;;;19.10;99.90;;;;;;5040329;28;20017;-74
2021/06/29 07:32:58;;;;;;;26.63;16.33;;;19.20;99.90;;;;;;5025245;28;20040;-74
2021/06/29 07:35:25;;;;;;;32.55;17.92;;;19.30;99.90;;;;;;5034360;28;20021;-74
2021/06/29 07:37:51;;;;;;;25.23;16.27;;;19.30;99.90;;;;;;5034259;28;20037;-74
2021/06/29 07:40:17;;;;;;;26.13;17.10;;;19.40;99.90;;;;;;5032377;28;20030;-75
2021/06/29 07:42:43;;;;;;;32.53;18.05;;;19.50;99.90;;;;;;5034314;28;20437;-74
2021/06/29 07:45:09;;;;;;;24.15;16.88;;;19.40;99.90;;;;;;5033959;28;20096;-75
2021/06/29 07:47:35;;;;;;;30.48;16.27;;;19.30;99.90;;;;;;5032054;28;20029;-73
2021/06/29 07:50:06;;;;;;;27.50;17.73;;;19.30;99.90;;;;;;5032110;28;20037;-73
2021/06/29 07:52:32;;;;;;;31.42;17.95;;;19.20;99.90;;;;;;5030590;28;21609;-74
2021/06/29 07:54:57;;;;;;;32.90;18.88;;;19.20;99.90;;;;;;5033779;28;20045;-73
2021/06/29 07:57:23;;;;;;;30.08;17.13;;;19.20;99.90;;;;;;5032453;28;20036;-74
2021/06/29 07:59:49;;;;;;;29.00;16.05;;;19.20;99.90;;;;;;5031413;28;20025;-74
2021/06/29 08:02:14;;;;;;;27.67;16.42;;;19.30;99.90;;;;;;5027362;28;20116;-74
2021/06/29 08:04:41;;;;;;;26.13;16.38;;;19.40;99.90;;;;;;5032249;28;20068;-73
2021/06/29 08:07:06;;;;;;;26.25;16.98;;;19.50;99.90;;;;;;5032490;28;20071;-76
2021/06/29 08:09:32;;;;;;;34.38;18.75;;;19.50;99.90;;;;;;5033959;28;20028;-75
2021/06/29 08:11:58;;;;;;;33.17;17.38;;;19.50;99.90;;;;;;5034850;28;20045;-75
2021/06/29 08:14:24;;;;;;;27.48;16.85;;;19.60;99.90;;;;;;5039202;28;20044;-75
2021/06/29 08:16:50;;;;;;;34.08;18.77;;;19.70;99.90;;;;;;5043211;28;20022;-75
2021/06/29 08:19:17;;;;;;;30.25;18.85;;;19.80;99.90;;;;;;5038809;28;20045;-76
2021/06/29 08:21:43;;;;;;;25.98;17.67;;;19.80;99.90;;;;;;5040855;28;20029;-76
2021/06/29 08:24:09;;;;;;;26.45;18.48;;;19.80;99.90;;;;;;5039721;28;20037;-77
2021/06/29 08:26:34;;;;;;;32.03;18.23;;;19.70;99.90;;;;;;5045531;28;20025;-76
2021/06/29 08:29:00;;;;;;;24.90;17.00;;;19.70;99.90;;;;;;5038257;28;20021;-76
2021/06/29 08:31:26;;;;;;;28.08;17.13;;;19.70;99.90;;;;;;5034584;28;20064;-75
2021/06/29 08:33:55;;;;;;;26.60;15.23;;;19.70;99.90;;;;;;5032822;28;20029;-75
2021/06/29 08:36:21;;;;;;;23.10;15.27;;;19.60;99.90;;;;;;5036132;28;20036;-74
2021/06/29 08:38:48;;;;;;;20.13;14.80;;;19.60;99.90;;;;;;5033518;28;20068;-75
2021/06/29 08:41:14;;;;;;;24.48;16.80;;;19.70;99.90;;;;;;5025428;28;20493;-75
2021/06/29 08:43:40;;;;;;;29.63;15.73;;;19.80;99.90;;;;;;5022848;28;20025;-75
2021/06/29 08:46:07;;;;;;;26.92;15.52;;;19.80;99.90;;;;;;5038490;28;20034;-74
2021/06/29 08:48:32;;;;;;;25.50;16.58;;;19.80;99.90;;;;;;5035407;28;21307;-75
2021/06/29 08:51:04;;;;;;;23.65;16.48;;;19.90;99.90;;;;;;5031388;28;20080;-75
2021/06/29 08:53:30;;;;;;;25.05;18.15;;;19.90;99.90;;;;;;5031239;28;20381;-74
2021/06/29 08:55:58;;;;;;;25.63;16.63;;;19.90;99.90;;;;;;5042353;28;20431;-74
2021/06/29 08:58:24;;;;;;;27.33;16.42;;;20.00;99.90;;;;;;5031719;28;20017;-75
2021/06/29 09:00:52;;;;;;;21.92;15.90;;;20.20;99.90;;;;;;5035670;28;20029;-78
2021/06/29 09:03:18;;;;;;;23.17;15.40;;;20.30;99.90;;;;;;5033349;28;20052;-77
2021/06/29 09:05:49;;;;;;;20.10;14.35;;;20.40;99.90;;;;;;5035177;28;20026;-79
2021/06/29 09:08:18;;;;;;;19.33;13.55;;;20.50;99.90;;;;;;5039858;28;20032;-78
2021/06/29 09:11:03;;;;;;;17.23;13.00;;;20.50;99.90;;;;;;5046271;28;20037;-79
2021/06/29 09:13:30;;;;;;;22.25;14.63;;;20.40;99.90;;;;;;5037291;28;20033;-78
2021/06/29 09:15:57;;;;;;;19.40;14.40;;;20.30;99.90;;;;;;5047063;28;20026;-78
2021/06/29 09:18:25;;;;;;;23.03;15.40;;;20.20;99.90;;;;;;5045885;28;20025;-78
2021/06/29 09:20:56;;;;;;;22.23;16.15;;;20.00;99.90;;;;;;5058391;28;20026;-79
2021/06/29 09:23:25;;;;;;;24.60;16.33;;;20.00;99.90;;;;;;5065749;28;20037;-77
2021/06/29 09:26:00;;;;;;;27.80;18.58;;;19.90;99.90;;;;;;5058939;28;20063;-77
2021/06/29 09:28:30;;;;;;;26.13;18.25;;;19.80;99.90;;;;;;5049560;28;20030;-79
2021/06/29 09:31:01;;;;;;;28.52;16.95;;;19.80;99.90;;;;;;5037051;28;20041;-78
2021/06/29 09:33:32;;;;;;;29.33;18.83;;;19.80;99.90;;;;;;5034995;28;20049;-74
2021/06/29 09:36:01;;;;;;;28.98;18.58;;;19.70;99.90;;;;;;5045560;28;20024;-74
2021/06/29 09:38:38;;;;;;;24.40;16.95;;;19.70;99.90;;;;;;5050567;28;20021;-74
2021/06/29 09:41:06;;;;;;;23.05;16.35;;;19.70;99.90;;;;;;5036859;28;20017;-74
2021/06/29 09:43:41;;;;;;;25.40;17.23;;;19.70;99.90;;;;;;5036959;28;20127;-75
2021/06/29 09:46:10;;;;;;;23.42;15.90;;;19.70;99.90;;;;;;5037241;28;20397;-73
2021/06/29 09:48:40;;;;;;;25.13;15.77;;;19.80;99.90;;;;;;5033947;28;20028;-74
2021/06/29 09:51:30;;;;;;;24.73;15.43;;;19.70;99.90;;;;;;5037772;28;20021;-76
2021/06/29 09:54:02;;;;;;;24.58;15.35;;;19.70;99.90;;;;;;5047862;28;20029;-76
2021/06/29 09:56:49;;;;;;;24.73;15.57;;;19.60;99.90;;;;;;5037423;28;20512;-74
2021/06/29 09:59:17;;;;;;;24.17;16.55;;;19.60;99.90;;;;;;5037715;28;20417;-74
2021/06/29 10:01:43;;;;;;;22.60;16.40;;;19.50;99.90;;;;;;5037296;28;20104;-74
2021/06/29 10:04:10;;;;;;;26.88;17.00;;;19.50;99.90;;;;;;5035633;28;20033;-73
2021/06/29 10:06:38;;;;;;;27.58;17.58;;;19.50;99.90;;;;;;5032925;28;20033;-77
2021/06/29 10:09:09;;;;;;;24.15;17.58;;;19.50;99.90;;;;;;5039562;28;20037;-75
2021/06/29 10:11:38;;;;;;;28.85;17.75;;;19.60;99.90;;;;;;5039942;28;20047;-77
2021/06/29 10:14:04;;;;;;;32.10;18.10;;;19.60;99.90;;;;;;5040704;28;20036;-76
2021/06/29 10:16:40;;;;;;;27.05;17.63;;;19.50;99.90;;;;;;5039711;28;20041;-75
2021/06/29 10:21:36;;;;;;;24.98;16.42;;;19.70;99.90;;;;;;5043826;28;20029;-76
2021/06/29 10:24:06;;;;;;;26.30;16.60;;;19.70;99.90;;;;;;5039844;28;20114;-74
2021/06/29 10:26:34;;;;;;;24.15;16.65;;;19.90;99.90;;;;;;5032841;28;20025;-75
2021/06/29 10:29:02;;;;;;;34.20;15.88;;;20.00;99.90;;;;;;5032435;28;20069;-76
2021/06/29 10:31:30;;;;;;;22.33;15.57;;;20.00;99.90;;;;;;5031972;28;20167;-75
2021/06/29 10:34:07;;;;;;;29.17;16.70;;;20.10;99.90;;;;;;5041204;28;20041;-72
2021/06/29 10:36:35;;;;;;;23.45;16.25;;;20.10;99.90;;;;;;5034915;28;20029;-73
2021/06/29 10:39:00;;;;;;;;;;;20.00;99.90;;;;;;5031111;28;20578;-74
2021/06/29 10:41:32;;;;;;;29.42;16.40;;;20.00;99.90;;;;;;5046169;28;19909;-76
2021/06/29 10:43:59;;;;;;;32.13;18.58;;;19.80;99.90;;;;;;5034289;28;20029;-76
2021/06/29 10:46:28;;;;;;;28.63;17.60;;;19.70;99.90;;;;;;5035489;28;20044;-75
2021/06/29 10:49:27;;;;;;;21.92;14.23;;;19.90;99.90;;;;;;5030855;28;20037;-75
2021/06/29 10:51:53;;;;;;;27.67;17.08;;;20.00;99.90;;;;;;5018254;28;20061;-75
2021/06/29 10:54:34;;;;;;;25.65;16.00;;;20.00;99.90;;;;;;5034807;28;20053;-75
2021/06/29 10:57:06;;;;;;;32.75;16.80;;;20.30;99.90;;;;;;5027965;28;20084;-76
2021/06/29 10:59:39;;;;;;;28.50;15.75;;;20.40;99.90;;;;;;5029463;28;20033;-75
2021/06/29 11:02:04;;;;;;;37.35;16.88;;;20.40;99.90;;;;;;5028206;28;20025;-74
2021/06/29 11:04:50;;;;;;;28.67;17.33;;;20.40;99.90;;;;;;5027676;28;20045;-74
2021/06/29 11:07:31;;;;;;;25.20;16.42;;;20.40;99.90;;;;;;5040539;28;20029;-74
2021/06/29 11:10:02;;;;;;;30.02;16.73;;;20.30;99.90;;;;;;5027675;28;20385;-75
2021/06/29 11:12:47;;;;;;;30.77;17.35;;;20.40;99.90;;;;;;5026126;28;20485;-75
2021/06/29 11:15:14;;;;;;;29.55;17.48;;;20.50;99.90;;;;;;5024363;28;20033;-75
2021/06/29 11:17:53;;;;;;;28.08;19.15;;;20.50;99.90;;;;;;5029339;28;20080;-73
2021/06/29 11:20:22;;;;;;;41.67;20.55;;;20.50;99.90;;;;;;5030882;28;20315;-73
2021/06/29 11:22:53;;;;;;;29.17;17.45;;;20.50;99.90;;;;;;5032631;28;20071;-72
2021/06/29 11:25:39;;;;;;;30.30;17.88;;;20.50;99.90;;;;;;5032199;28;20033;-73
2021/06/29 11:28:11;;;;;;;26.08;16.38;;;20.40;99.90;;;;;;5032256;28;20129;-72
2021/06/29 11:30:55;;;;;;;29.20;15.90;;;20.40;99.90;;;;;;5034407;28;20021;-74
2021/06/29 11:33:40;;;;;;;25.88;15.13;;;20.30;99.90;;;;;;5031997;28;20060;-73
2021/06/29 11:36:26;;;;;;;25.40;16.20;;;20.20;99.90;;;;;;5031136;28;20129;-75
2021/06/29 11:38:53;;;;;;;26.10;15.32;;;20.20;99.90;;;;;;5022068;28;20037;-75
2021/06/29 11:41:28;;;;;;;27.55;14.38;;;20.30;99.90;;;;;;5027530;28;20056;-75
2021/06/29 11:44:17;;;;;;;23.48;14.32;;;20.40;99.90;;;;;;5024000;28;20091;-75
2021/06/29 11:47:07;;;;;;;20.30;11.13;;;20.60;99.90;;;;;;5032971;28;20079;-74
2021/06/29 11:49:38;;;;;;;30.15;13.30;;;20.70;99.90;;;;;;5043798;28;20033;-74
2021/06/29 11:52:18;;;;;;;26.05;13.75;;;20.70;99.90;;;;;;5028157;28;20486;-75
2021/06/29 11:55:03;;;;;;;23.45;15.43;;;20.60;99.90;;;;;;5017940;28;20033;-75
2021/06/29 11:57:38;;;;;;;32.67;17.65;;;20.70;99.90;;;;;;5027477;28;20099;-76
2021/06/29 12:00:22;;;;;;;37.25;20.38;;;20.70;99.90;;;;;;5028494;28;20037;-75
2021/06/29 12:02:50;;;;;;;39.95;21.88;;;20.70;99.90;;;;;;5029120;28;20037;-74
2021/06/29 12:05:18;;;;;;;39.10;23.52;;;20.50;99.90;;;;;;5026383;28;20025;-75
2021/06/29 12:07:52;;;;;;;37.63;21.42;;;20.40;99.90;;;;;;5023546;28;20072;-75
2021/06/29 12:10:20;;;;;;;41.30;21.88;;;20.40;99.90;;;;;;5024277;28;20030;-75
2021/06/29 12:12:46;;;;;;;;;;;20.30;99.90;;;;;;5033381;28;20539;-76
2021/06/29 12:15:19;;;;;;;32.75;19.50;;;20.20;99.90;;;;;;5033800;28;19916;-75
2021/06/29 12:17:48;;;;;;;40.00;20.80;;;20.10;99.90;;;;;;5032821;28;20025;-74
2021/06/29 12:20:14;;;;;;;36.85;21.98;;;20.00;99.90;;;;;;5032468;28;20029;-76
2021/06/29 12:22:42;;;;;;;29.08;18.20;;;19.90;99.90;;;;;;5033830;28;20034;-75
2021/06/29 12:25:09;;;;;;;;;;;19.80;99.90;;;;;;5033075;28;20079;-76
2021/06/29 12:27:49;;;;;;;39.00;16.98;;;19.70;99.90;;;;;;5034508;28;19916;-75
2021/06/29 12:30:42;;;;;;;30.13;16.17;;;19.60;99.90;;;;;;5033559;28;20367;-74
2021/06/29 12:33:29;;;;;;;27.58;16.33;;;19.30;99.90;;;;;;5036649;28;20385;-74
2021/06/29 12:35:59;;;;;;;30.33;15.63;;;19.20;99.90;;;;;;5024857;28;20060;-75
2021/06/29 12:38:29;;;;;;;31.40;15.43;;;19.20;99.90;;;;;;5030659;28;20103;-74